»·PEaware :: N2250R KCMA-KSNA

N2250R :: KCMA-KSNA

FLIGHT INFORMATION

Flight Status: Arrived
Operator: Privately registered:
United States
More flights under this callsign
Pilot: Richard M. (3194)
Aircraft: CESSNA 182 SKYLANE
(C182)
More flights by this aircraft type
Origin: KCMA Camarillo
United States
Destination: KSNA John Wayne-Orange Co
United States
More flights between these airports :: More routes between these airports
Route: +
File this flight plan on PilotEdge
Remarks:
Altitude:
(Current/Filed)
0ft
Speed:
(Current/Filed)
0kts
Departed: 26-Oct-19 08:44 AM
Arrived: 26-Oct-19 09:28 AM
Distance/Time
Traveled:
69nm/0:44
Distance/Time
To Go:
Arrived

Flight Plot

Page will automatically refresh every two minutes.


Map Options




Map Legend


Flown Route
Filed Route
Departure Airport
Arrival Airport
Navaid (VOR, NDB)
Fix

Horizontal Profiles

Position Reports

Time Latitude Longitude Heading Altitude Ground
Speed
26-Oct-19 08:36 34.209909 -119.076803 91 78ft 0kts
26-Oct-19 08:37 34.209909 -119.076801 91 78ft 0kts
26-Oct-19 08:38 34.209909 -119.076800 91 78ft 0kts
26-Oct-19 08:39 34.209949 -119.076714 32 78ft 5kts
26-Oct-19 08:40 34.210899 -119.079086 270 78ft 12kts
26-Oct-19 08:41 34.210941 -119.083368 270 78ft 13kts
26-Oct-19 08:42 34.212551 -119.084601 0 78ft 6kts
26-Oct-19 08:43 34.212842 -119.084604 2 78ft 0kts
26-Oct-19 08:44 34.213698 -119.089317 270 78ft 66kts
26-Oct-19 08:45 34.213874 -119.115713 253 918ft 87kts
26-Oct-19 08:46 34.201991 -119.100628 97 1923ft 98kts
26-Oct-19 08:46 34.199144 -119.076252 96 2698ft 81kts
26-Oct-19 08:48 34.195305 -119.041681 95 3308ft 91kts
26-Oct-19 08:49 34.193809 -119.011211 79 3913ft 87kts
26-Oct-19 08:49 34.193408 -118.986854 96 4399ft 89kts
26-Oct-19 08:50 34.188070 -118.956870 98 4960ft 93kts
26-Oct-19 08:52 34.181177 -118.920032 99 5572ft 103kts
26-Oct-19 08:52 34.174832 -118.886535 100 5579ft 134kts
26-Oct-19 08:53 34.166503 -118.842723 100 5573ft 133kts
26-Oct-19 08:54 34.158225 -118.798914 100 5573ft 133kts
26-Oct-19 08:55 34.150651 -118.758889 101 5573ft 133kts
26-Oct-19 08:56 34.142337 -118.715033 101 5573ft 133kts
26-Oct-19 08:57 34.134045 -118.671387 100 5573ft 133kts
26-Oct-19 08:58 34.125751 -118.627813 100 5573ft 133kts
26-Oct-19 08:59 34.117438 -118.584229 101 5573ft 133kts
26-Oct-19 09:00 34.109131 -118.540784 100 5545ft 133kts
26-Oct-19 09:01 34.108249 -118.498008 85 5541ft 130kts
26-Oct-19 09:02 34.083694 -118.472700 175 5540ft 129kts
26-Oct-19 09:03 34.052228 -118.465000 171 5536ft 130kts
26-Oct-19 09:04 34.016716 -118.455265 171 5536ft 130kts
26-Oct-19 09:05 33.981251 -118.445461 171 5536ft 131kts
26-Oct-19 09:06 33.945762 -118.435649 171 5536ft 131kts
26-Oct-19 09:07 33.913581 -118.416024 144 5537ft 133kts
26-Oct-19 09:08 33.883823 -118.389260 146 5536ft 133kts
26-Oct-19 09:09 33.853775 -118.362986 146 5536ft 133kts
26-Oct-19 09:10 33.826943 -118.339591 146 5536ft 133kts
26-Oct-19 09:11 33.796770 -118.313304 146 5536ft 133kts
26-Oct-19 09:12 33.766911 -118.287297 146 5574ft 132kts
26-Oct-19 09:13 33.745221 -118.254166 97 5578ft 133kts
26-Oct-19 09:14 33.738010 -118.210206 100 5573ft 134kts
26-Oct-19 09:15 33.730127 -118.166319 100 5573ft 134kts
26-Oct-19 09:16 33.726896 -118.122197 87 5574ft 133kts
26-Oct-19 09:17 33.726259 -118.082186 89 5573ft 133kts
26-Oct-19 09:18 33.725032 -118.035613 88 5013ft 139kts
26-Oct-19 09:19 33.724068 -117.990145 89 4214ft 133kts
26-Oct-19 09:20 33.714933 -117.949292 123 3418ft 118kts
26-Oct-19 09:21 33.698766 -117.920454 116 2483ft 90kts
26-Oct-19 09:22 33.685648 -117.893950 121 1575ft 88kts
26-Oct-19 09:23 33.675172 -117.870928 112 1483ft 74kts
26-Oct-19 09:24 33.674841 -117.849255 42 1503ft 70kts
26-Oct-19 09:25 33.695169 -117.840668 325 870ft 92kts
26-Oct-19 09:26 33.687633 -117.859504 205 266ft 64kts
26-Oct-19 09:27 33.676848 -117.865585 119 59ft 4kts
26-Oct-19 09:28 33.676797 -117.865518 152 59ft 0kts
26-Oct-19 09:29 33.675147 -117.866436 207 59ft 12kts
26-Oct-19 09:30 33.671838 -117.868286 209 59ft 13kts
26-Oct-19 09:31 33.670800 -117.868007 27 59ft 0kts

Navigation Log

Ident Type
Flight plan parsing failed, navigation log unavailable